Tiempo atmosférico en la estación meteorológica de Coll De Nargó, Lleida (603 m.)



Fecha
DESCASC
Temp. máxima en grados centígrados (hora)
DESCASC
Temp. mínima en grados centígrados (hora)
DESCASC
Temp. media en grados centígrados
DESCASC
Racha de viento máxima en m/sg (hora)
DESCASC
Velocidad máxima media en intervalos de 10 minutos(hora)
DESCASC
Precipitaciones diarias en mm
DESCASC
Precipitaciones de 00:00 a 06:00 en mm
DESCASC
Precipitaciones de 06:00 a 12:00 en mm
DESCASC
Precipitaciones de 12:00 a 18:00 en mm
DESCASC
Precipitaciones de 18:00 a 24:00 en mm
DESCASC
11-08-2020 34.6 (13:50) 16.1 (07:30) 25.3 11.67 (21:50) 7.78 (21:50) 0 0 0 0 0
10-08-2020 29.2 (12:10) 14.6 (06:50) 21.9 10.83 (14:40) 4.72 (01:40) 1.2 0 0 1.2 0
09-08-2020 37.3 (14:50) 17 (23:40) 27.1 19.72 (16:40) 12.78 (16:50) 8.4 0 0 7 1.4
08-08-2020 38.4 (16:10) 20.7 (23:59) 29.6 10.56 (15:50) 7.78 (15:20) 1.8 0 0 0 1.8
07-08-2020 37.8 (16:00) 16.6 (00:00) 27.2 11.39 (16:10) 8.33 (17:20) 0 0 0 0 0
06-08-2020 35.2 (16:20) 15.8 (00:00) 25.5 11.39 (00:10) 8.33 (00:30) 0 0 0 0 0
05-08-2020 31.6 (16:50) 12.4 (00:00) 22 11.39 (16:10) 8.61 (16:20) 0 0 0 0 0
04-08-2020 30.9 (12:10) 14.9 (07:50) 22.9 12.5 (14:10) 9.17 (13:40) 0 0 0 0 0
03-08-2020 28.6 (17:50) 16 (07:40) 22.3 14.72 (00:40) 11.94 (00:40) 0 0 0 0 0
02-08-2020 31.3 (17:30) 16.9 (00:00) 24.1 16.39 (14:40) 13.33 (12:10) 0 0 0 0 0
01-08-2020 38 (15:00) 18.1 (00:00) 28.1 11.39 (15:10) 7.5 (15:10) 0 0 0 0 0
31-07-2020 39.3 (16:30) 18.6 (07:00) 28.9 10.83 (16:50) 6.94 (13:50) 0 0 0 0 0
30-07-2020 38.1 (16:00) 17.2 (00:00) 27.6 13.33 (19:20) 7.5 (19:10) 0 0 0 0 0
29-07-2020 36.1 (16:30) 15.8 (00:00) 25.9 10.56 (11:40) 8.61 (12:00) 0 0 0 0 0
28-07-2020 36.7 (16:30) 19.3 (00:00) 28 12.78 (17:20) 8.61 (01:20) 0 0 0 0 0
27-07-2020 37.2 (16:30) 17.4 (00:00) 27.3 11.39 (21:30) 8.61 (15:00) 0 0 0 0 0
26-07-2020 33.3 (16:10) 14.7 (00:00) 24 10.83 (23:10) 7.78 (23:10) 0 0 0 0 0
25-07-2020 31.6 (17:00) 15.4 (00:00) 23.5 11.67 (11:40) 8.89 (13:10) 0 0 0 0 0
24-07-2020 31.6 (16:00) 16.3 (00:00) 23.9 12.5 (23:00) 8.33 (22:00) 7 5.6 1.4 0 0
23-07-2020 35 (15:10) 18 (00:00) 26.5 11.39 (16:10) 7.78 (12:40) 0 0 0 0 0
22-07-2020 34.8 (15:00) 17.5 (00:00) 26.1 10.56 (16:10) 7.78 (12:20) 0 0 0 0 0
21-07-2020 35.1 (16:10) 14.9 (00:00) 25 12.5 (20:20) 8.33 (20:00) 0 0 0 0 0
20-07-2020 32.1 (15:00) 16.8 (00:00) 24.4 13.33 (14:50) 8.33 (13:30) 0 0 0 0 0
19-07-2020 33.1 (15:30) 14.9 (00:00) 24 12.22 (21:00) 8.33 (14:10) 0 0 0 0 0
18-07-2020 30 (15:40) 13.3 (00:00) 21.7 13.06 (14:50) 9.44 (13:10) 0 0 0 0 0
17-07-2020 27.8 (16:20) 17 (00:00) 22.4 13.06 (12:40) 10 (13:00) 0 0 0 0 0
16-07-2020 27.6 (17:40) 14.4 (00:00) 21 14.44 (13:20) 11.67 (12:00) 0 0 0 0 0
15-07-2020 25.4 (18:30) 12 (00:00) 18.7 13.89 (13:10) 11.67 (13:10) 0 0 0 0 0
14-07-2020 26.6 (16:20) 13.9 (00:00) 20.3 14.44 (14:00) 9.72 (13:50) 0.2 0 0 0 0.2

Gráficas

Temp. máximas Temp. mínimas Temp. medias Precipitaciones Rachas de viento máximas Velocidades máximas media en intervalos de 10 minutos

Datos horarios

Fecha y hora oficial Temperatura (ºC) Velocidad del viento (km/h) Dirección del viento Racha (km/h) Dirección de racha Precipitación (mm) Presión (hPa) Tendencia (hPa) Humedad (%)
2020-08-12 23:00:00 -- -- -- -- -- -- -- -- --
2020-08-12 22:00:00 24 4 Sur 35 Sur 0 -- -- 59
2020-08-12 21:00:00 25.1 20 Sur 31 Sur 0 -- -- 56
2020-08-12 20:00:00 24.9 18 Sur 27 Sudeste 0 -- -- 57
2020-08-12 19:00:00 26.6 18 Sudeste 29 Sur 0 -- -- 50
2020-08-12 18:00:00 27.8 17 Sur 27 Sur 0.2 -- -- 48
2020-08-12 17:00:00 28.9 4 Sudeste 14 Norte 0 -- -- 47
2020-08-12 16:00:00 26.8 5 Norte 16 Nordeste 0 -- -- 62
2020-08-12 15:00:00 21.2 7 Sudeste 88 Sudeste 3.6 -- -- 86
2020-08-12 14:00:00 26.5 11 Sur 21 Sur 0 -- -- 51
2020-08-12 13:00:00 27.7 8 Sudoeste 15 Sudoeste 0.2 -- -- 48
2020-08-12 12:00:00 26.5 4 Norte 8 Norte 0 -- -- 49
2020-08-12 11:00:00 21.1 2 Nordeste 6 Nordeste 0 -- -- 75
2020-08-12 10:00:00 19.1 0 Calma 6 Norte 0 -- -- 87
2020-08-12 09:00:00 19 0 Calma 8 Norte 0.4 -- -- 73
2020-08-12 08:00:00 19.1 4 Norte 8 Norte 0 -- -- 70
2020-08-12 07:00:00 19.3 4 Nordeste 10 Norte 0 -- -- 69
2020-08-12 06:00:00 21.1 5 Oeste 12 Nordeste 0 -- -- 62
2020-08-12 05:00:00 20.7 3 Noroeste 14 Norte 0 -- -- 62
2020-08-12 04:00:00 20.9 6 Nordeste 9 Norte 0 -- -- 64
2020-08-12 03:00:00 22.4 4 Sudeste 12 Nordeste 0 -- -- 53
2020-08-12 02:00:00 23.3 4 Sur 19 Sur 0 -- -- 51
2020-08-12 01:00:00 23.8 13 Sur 22 Sur 0 -- -- 49
2020-08-12 00:00:00 25.2 12 Sur 36 Sudeste 0 -- -- 46
2020-08-11 23:00:00 26.1 21 Sur 41 Sur 0 -- -- 47
2020-08-11 22:00:00 27.1 24 Sur 42 Sur 0 -- -- 50
2020-08-11 21:00:00 26.8 6 Sudeste 14 Norte 0 -- -- 44
2020-08-11 20:00:00 27.3 8 Norte 13 Norte 0 -- -- 42
2020-08-11 19:00:00 30.5 6 Noroeste 12 Oeste 0 -- -- 31
2020-08-11 18:00:00 31.5 9 Sudoeste 26 Sudeste 0 -- -- 30
2020-08-11 17:00:00 34.3 15 Sudeste 26 Sudeste 0 -- -- 26
2020-08-11 16:00:00 31.3 13 Sur 29 Sudeste 0 -- -- 32
2020-08-11 15:00:00 31.3 17 Sur 32 Sur 0 -- -- 31
2020-08-11 14:00:00 33.6 22 Sur 31 Sur 0 -- -- 28
2020-08-11 13:00:00 33.4 5 Sudeste 11 Sur 0 -- -- 28
2020-08-11 12:00:00 30.9 7 Nordeste 13 Norte 0 -- -- 40
2020-08-11 11:00:00 28.5 9 Nordeste 13 Norte 0 -- -- 46
2020-08-11 10:00:00 26.8 6 Nordeste 10 Nordeste 0 -- -- 49
2020-08-11 09:00:00 22.9 7 Norte 10 Norte 0 -- -- 60
2020-08-11 08:00:00 16.7 5 Norte 12 Nordeste 0 -- -- 85
2020-08-11 07:00:00 16.9 7 Nordeste 14 Nordeste 0 -- -- 82
2020-08-11 06:00:00 18.2 6 Noroeste 14 Este 0 -- -- 74
2020-08-11 05:00:00 17 4 Nordeste 14 Norte 0 -- -- 86
2020-08-11 04:00:00 17.7 6 Norte 13 Este 0 -- -- 80
2020-08-11 03:00:00 16.9 6 Norte 11 Norte 0 -- -- 86
2020-08-11 02:00:00 18 2 Oeste 10 Noroeste 0 -- -- 82
2020-08-11 01:00:00 17.9 8 Nordeste 10 Nordeste 0 -- -- 84
2020-08-11 00:00:00 18.5 8 Norte 9 Norte 0 -- -- 81
2020-08-10 23:00:00 20 5 Nordeste 9 Nordeste 0 -- -- 76
2020-08-10 22:00:00 21 7 Nordeste 12 Nordeste 0 -- -- 73
2020-08-10 21:00:00 23.3 4 Nordeste 10 Nordeste 0 -- -- 68
2020-08-10 20:00:00 26.4 4 Nordeste 11 Nordeste 0 -- -- 55
2020-08-10 19:00:00 26.6 8 Nordeste 22 Oeste 0 -- -- 54
2020-08-10 18:00:00 25.2 12 Norte 24 Norte 0 -- -- 60
2020-08-10 17:00:00 26.8 7 Nordeste 16 Norte 0 -- -- 59
2020-08-10 16:00:00 26.2 8 Norte 18 Nordeste 0 -- -- 65
2020-08-10 15:00:00 24.9 6 Nordeste 39 Oeste 0 -- -- 71
2020-08-10 14:00:00 21.7 8 Noroeste 16 Nordeste 1 -- -- 78
2020-08-10 13:00:00 26.7 5 Norte 9 Nordeste 0.2 -- -- 57
2020-08-10 12:00:00 27.9 5 Norte 14 Nordeste 0 -- -- 50
2020-08-10 11:00:00 26.6 8 Nordeste 25 Norte 0 -- -- 54
2020-08-10 10:00:00 23.8 8 Nordeste 15 Nordeste 0 -- -- 63
2020-08-10 09:00:00 21.1 7 Norte 15 Norte 0 -- -- 75
2020-08-10 08:00:00 15 8 Norte 13 Nordeste 0 -- -- 98
2020-08-10 07:00:00 14.6 8 Norte 14 Norte 0 -- -- 98
2020-08-10 06:00:00 14.8 9 Norte 13 Norte 0 -- -- 97
2020-08-10 05:00:00 15.3 6 Norte 16 Noroeste 0 -- -- 96
2020-08-10 04:00:00 15.4 8 Norte 15 Norte 0 -- -- 95
2020-08-10 03:00:00 16.3 5 Norte 16 Norte 0 -- -- 92
2020-08-10 02:00:00 17 12 Norte 31 Norte 0 -- -- 90
2020-08-10 01:00:00 16.7 10 Norte 19 Norte 0 -- -- 94
2020-08-10 00:00:00 17.2 6 Norte 14 Norte 0 -- -- 93
2020-08-09 23:00:00 17.7 8 Noroeste 25 Noroeste 0 -- -- 90
2020-08-09 22:00:00 17.6 8 Noroeste 25 Noroeste 0 -- -- 93
2020-08-09 21:00:00 18.1 6 Noroeste 21 Noroeste 0 -- -- 94
2020-08-09 20:00:00 18 5 Nordeste 32 Noroeste 0.2 -- -- 98
2020-08-09 19:00:00 17.7 12 Noroeste 25 Norte 1.2 -- -- 98
2020-08-09 18:00:00 17.6 20 Norte 66 Nordeste 7 -- -- 97
2020-08-09 17:00:00 27.3 32 Norte 71 Norte 0 -- -- 42
2020-08-09 16:00:00 36.9 23 Sur 41 Sur 0 -- -- 25
2020-08-09 15:00:00 36.9 23 Sur 37 Sur 0 -- -- 24
2020-08-09 14:00:00 36.2 22 Sur 38 Sudeste 0 -- -- 27
2020-08-09 13:00:00 35.2 19 Sur 29 Sur 0 -- -- 30
2020-08-09 12:00:00 32.9 6 Nordeste 11 Norte 0 -- -- 41
2020-08-09 11:00:00 29.4 4 Norte 9 Nordeste 0 -- -- 50
2020-08-09 10:00:00 24.1 5 Norte 10 Nordeste 0 -- -- 70
2020-08-09 09:00:00 21.1 5 Norte 9 Nordeste 0 -- -- 79
2020-08-09 08:00:00 18.8 2 Nordeste 8 Noroeste 0 -- -- 88
2020-08-09 07:00:00 17.9 5 Norte 9 Nordeste 0 -- -- 94
2020-08-09 06:00:00 17.9 7 Norte 12 Norte 0 -- -- 96
2020-08-09 05:00:00 18 7 Norte 12 Nordeste 0 -- -- 96
2020-08-09 04:00:00 18.6 8 Nordeste 12 Nordeste 0 -- -- 96
2020-08-09 03:00:00 19.5 6 Nordeste 12 Nordeste 0 -- -- 95
2020-08-09 02:00:00 20.3 6 Noroeste 15 Norte 0 -- -- 94
2020-08-09 01:00:00 20.3 10 Norte 15 Norte 0 -- -- 95
2020-08-09 00:00:00 20.7 5 Nordeste 12 Norte 0 -- -- 94
2020-08-08 23:00:00 21.2 10 Norte 16 Norte 0 -- -- 95
2020-08-08 22:00:00 21.2 9 Norte 13 Norte 0.2 -- -- 95
2020-08-08 21:00:00 21.3 7 Norte 17 Norte 0 -- -- 93
2020-08-08 20:00:00 21.9 7 Nordeste 21 Nordeste 0.2 -- -- 88
2020-08-08 19:00:00 22.8 11 Nordeste 21 Norte 1.4 -- -- 89
2020-08-08 18:00:00 35.8 21 Sur 34 Sur 0 -- -- 29
2020-08-08 17:00:00 38.3 21 Sur 31 Sudeste 0 -- -- 24
2020-08-08 16:00:00 38.3 21 Sur 38 Sur 0 -- -- 24
2020-08-08 15:00:00 37.6 23 Sudeste 35 Sur 0 -- -- 26
2020-08-08 14:00:00 36.7 26 Sur 36 Sur 0 -- -- 27
2020-08-08 13:00:00 35.3 25 Sur 33 Sur 0 -- -- 31
2020-08-08 12:00:00 33.9 16 Sur 25 Sur 0 -- -- 33
2020-08-08 11:00:00 32.6 4 Nordeste 12 Norte 0 -- -- 31
2020-08-08 10:00:00 29.4 8 Nordeste 11 Nordeste 0 -- -- 38
2020-08-08 09:00:00 26.6 5 Norte 7 Norte 0 -- -- 45
2020-08-08 08:00:00 21.6 5 Norte 13 Norte 0 -- -- 54
2020-08-08 07:00:00 20.8 5 Norte 13 Norte 0 -- -- 57
2020-08-08 06:00:00 21.7 8 Norte 20 Norte 0 -- -- 57
2020-08-08 05:00:00 22.7 5 Norte 18 Este 0 -- -- 51
2020-08-08 04:00:00 22.5 8 Norte 16 Nordeste 0 -- -- 54
2020-08-08 03:00:00 22.8 7 Noroeste 14 Norte 0 -- -- 52
2020-08-08 02:00:00 22.6 6 Norte 13 Nordeste 0 -- -- 56
2020-08-08 01:00:00 23.8 6 Norte 11 Nordeste 0 -- -- 50
2020-08-08 00:00:00 25.2 4 Nordeste 12 Sur 0 -- -- 47
2020-08-07 23:00:00 27.1 6 Sur 26 Sur 0 -- -- 42
2020-08-07 22:00:00 29.2 22 Sur 27 Sur 0 -- -- 39
2020-08-07 21:00:00 30.8 15 Sur 30 Sur 0 -- -- 30
2020-08-07 20:00:00 32.4 14 Sur 26 Sur 0 -- -- 26
2020-08-07 19:00:00 34.9 18 Sur 33 Sur 0 -- -- 22
2020-08-07 18:00:00 36 25 Sur 40 Sudeste 0 -- -- 22
2020-08-07 17:00:00 36.8 27 Sudeste 41 Sudeste 0 -- -- 23
2020-08-07 16:00:00 37.8 25 Sudeste 40 Sur 0 -- -- 25
2020-08-07 15:00:00 37.1 27 Sur 38 Sur 0 -- -- 27
2020-08-07 14:00:00 36.2 27 Sur 39 Sur 0 -- -- 29
2020-08-07 13:00:00 35 25 Sudeste 35 Sur 0 -- -- 34
2020-08-07 12:00:00 34 5 Nordeste 11 Nordeste 0 -- -- 33
2020-08-07 11:00:00 30.3 6 Nordeste 12 Nordeste 0 -- -- 40
2020-08-07 10:00:00 24 3 Norte 10 Nordeste 0 -- -- 53
2020-08-07 09:00:00 25.6 6 Nordeste 12 Norte 0 -- -- 50
2020-08-07 08:00:00 17.3 10 Norte 15 Norte 0 -- -- 79
2020-08-07 07:00:00 17 4 Nordeste 14 Nordeste 0 -- -- 79
2020-08-07 06:00:00 16.6 9 Norte 12 Nordeste 0 -- -- 85
2020-08-07 05:00:00 16.9 8 Norte 10 Norte 0 -- -- 82
2020-08-07 04:00:00 17.8 6 Norte 8 Nordeste 0 -- -- 78
2020-08-07 03:00:00 19.5 4 Noroeste 6 Noroeste 0 -- -- 69
2020-08-07 02:00:00 20.3 4 Nordeste 10 Sudeste 0 -- -- 65
2020-08-07 01:00:00 21.7 4 Nordeste 11 Norte 0 -- -- 59
2020-08-07 00:00:00 24.5 3 Nordeste 32 Sur 0 -- -- 51
2020-08-06 23:00:00 26.3 23 Sur 32 Sur 0 -- -- 50
2020-08-06 22:00:00 27.1 17 Sur 24 Sudeste 0 -- -- 46
2020-08-06 21:00:00 28 15 Sur 24 Sur 0 -- -- 40
2020-08-06 20:00:00 30.6 16 Sur 26 Sur 0 -- -- 34
2020-08-06 19:00:00 33.2 18 Sur 34 Sur 0 -- -- 29
2020-08-06 18:00:00 34.6 22 Sur 34 Sudeste 0 -- -- 28
2020-08-06 17:00:00 35.1 26 Sur 33 Sur 0 -- -- 28
2020-08-06 16:00:00 35 24 Sur 36 Sur 0 -- -- 29
2020-08-06 15:00:00 34.8 27 Sur 36 Sur 0 -- -- 29
2020-08-06 14:00:00 33.7 27 Sur 37 Sudeste 0 -- -- 31
2020-08-06 13:00:00 32.7 23 Sur 31 Sur 0 -- -- 33
2020-08-06 12:00:00 31.6 4 Nordeste 10 Norte 0 -- -- 34
2020-08-06 11:00:00 29.1 6 Nordeste 12 Nordeste 0 -- -- 37
2020-08-06 10:00:00 26.3 8 Nordeste 14 Nordeste 0 -- -- 42
2020-08-06 09:00:00 23.9 8 Nordeste 13 Nordeste 0 -- -- 49
2020-08-06 08:00:00 16 4 Norte 10 Norte 0 -- -- 76
2020-08-06 07:00:00 16.1 4 Norte 10 Norte 0 -- -- 77
2020-08-06 06:00:00 16 7 Norte 9 Norte 0 -- -- 89
2020-08-06 05:00:00 16.7 3 Nordeste 6 Norte 0 -- -- 87
2020-08-06 04:00:00 17.6 4 Norte 10 Norte 0 -- -- 85
2020-08-06 03:00:00 18.2 6 Norte 15 Sur 0 -- -- 80
2020-08-06 02:00:00 20.7 12 Sur 31 Sur 0 -- -- 82
2020-08-06 01:00:00 21.5 25 Sur 41 Sur 0 -- -- 81
2020-08-06 00:00:00 22.3 30 Sur 41 Sur 0 -- -- 76
2020-08-05 23:00:00 23.9 18 Sudeste 34 Sur 0 -- -- 66
2020-08-05 22:00:00 24.7 17 Sur 23 Sur 0 -- -- 43
2020-08-05 21:00:00 25.5 15 Sur 23 Sur 0 -- -- 37
2020-08-05 20:00:00 28 15 Sur 28 Sur 0 -- -- 32
2020-08-05 19:00:00 29.9 21 Sur 36 Sur 0 -- -- 29
2020-08-05 18:00:00 30.9 26 Sur 40 Sudeste 0 -- -- 29
2020-08-05 17:00:00 31.3 29 Sur 41 Sur 0 -- -- 29
2020-08-05 16:00:00 31.3 30 Sur 39 Sur 0 -- -- 31
2020-08-05 15:00:00 31 28 Sur 39 Sur 0 -- -- 34
2020-08-05 14:00:00 29.9 31 Sur 40 Sur 0 -- -- 37
2020-08-05 13:00:00 28.9 27 Sur 37 Sur 0 -- -- 38
2020-08-05 12:00:00 28 17 Sur 25 Sur 0 -- -- 40
2020-08-05 11:00:00 27.5 4 Nordeste 14 Nordeste 0 -- -- 29
2020-08-05 10:00:00 24.5 4 Nordeste 13 Norte 0 -- -- 38
2020-08-05 09:00:00 22.6 5 Nordeste 10 Norte 0 -- -- 42
2020-08-05 08:00:00 13.7 5 Norte 8 Norte 0 -- -- 74
2020-08-05 07:00:00 12.8 3 Norte 10 Norte 0 -- -- 87
2020-08-05 06:00:00 13 4 Norte 9 Norte 0 -- -- 88
2020-08-05 05:00:00 13.8 4 Norte 7 Norte 0 -- -- 85
2020-08-05 04:00:00 14.9 4 Nordeste 5 Nordeste 0 -- -- 79
2020-08-05 03:00:00 15.5 4 Nordeste 8 Norte 0 -- -- 74
2020-08-05 02:00:00 16.6 4 Nordeste 18 Sur 0 -- -- 66
2020-08-05 01:00:00 18.9 10 Sur 19 Sur 0 -- -- 64
2020-08-05 00:00:00 20.3 10 Sudeste 28 Sur 0 -- -- 58
2020-08-04 23:00:00 21.4 18 Sudeste 25 Sur 0 -- -- 51
2020-08-04 22:00:00 22.8 16 Sur 23 Sur 0 -- -- 41
2020-08-04 21:00:00 24.2 18 Sur 33 Sur 0 -- -- 38
2020-08-04 20:00:00 25.6 26 Sur 40 Sudeste 0 -- -- 37
2020-08-04 19:00:00 27.5 26 Sur 38 Sur 0 -- -- 35
2020-08-04 18:00:00 28.8 26 Sudeste 42 Sudeste 0 -- -- 35
2020-08-04 17:00:00 29 29 Sur 44 Sudeste 0 -- -- 36
2020-08-04 16:00:00 29.4 28 Sudeste 43 Sudeste 0 -- -- 36
2020-08-04 15:00:00 29.5 28 Sudeste 45 Sur 0 -- -- 34
2020-08-04 14:00:00 28.7 31 Sur 43 Sur 0 -- -- 37
2020-08-04 13:00:00 29.7 14 Sur 24 Sudeste 0 -- -- 21
2020-08-04 12:00:00 30 6 Nordeste 26 Nordeste 0 -- -- 21
2020-08-04 11:00:00 27.9 16 Nordeste 34 Nordeste 0 -- -- 25
2020-08-04 10:00:00 25.7 17 Norte 30 Norte 0 -- -- 31
2020-08-04 09:00:00 22.3 15 Nordeste 26 Norte 0 -- -- 42
2020-08-04 08:00:00 15.2 9 Nordeste 13 Norte 0 -- -- 62
2020-08-04 07:00:00 15.8 7 Norte 27 Norte 0 -- -- 53
2020-08-04 06:00:00 17.4 17 Norte 32 Norte 0 -- -- 48
2020-08-04 05:00:00 16.4 10 Norte 19 Noroeste 0 -- -- 52
2020-08-04 04:00:00 16.7 5 Norte 11 Norte 0 -- -- 60
2020-08-04 03:00:00 18.1 3 Sudeste 9 Sudeste 0 -- -- 57
2020-08-04 02:00:00 18.9 3 Sur 8 Nordeste 0 -- -- 64
2020-08-04 01:00:00 19.8 2 Sur 9 Sur 0 -- -- 63
2020-08-04 00:00:00 20.5 2 Sudeste 19 Sudeste 0 -- -- 65
2020-08-03 23:00:00 21.3 12 Sudeste 28 Sudeste 0 -- -- 58
2020-08-03 22:00:00 21.4 3 Nordeste 11 Nordeste 0 -- -- 52
2020-08-03 21:00:00 23.4 8 Sur 19 Sur 0 -- -- 45
2020-08-03 20:00:00 25.5 15 Sudeste 32 Sur 0 -- -- 42
2020-08-03 19:00:00 25.3 19 Sur 32 Sur 0 -- -- 44
2020-08-03 18:00:00 27.2 23 Sur 37 Sudeste 0 -- -- 43
2020-08-03 17:00:00 26.2 26 Sur 42 Sur 0 -- -- 44
2020-08-03 16:00:00 27.3 32 Sudeste 46 Sudeste 0 -- -- 42
2020-08-03 15:00:00 26.8 33 Sur 48 Sur 0 -- -- 43
2020-08-03 14:00:00 25.7 35 Sur 50 Sur 0 -- -- 45
2020-08-03 13:00:00 24.2 36 Sur 53 Sur 0 -- -- 49
2020-08-03 12:00:00 22.4 37 Sur 50 Sur 0 -- -- 56
2020-08-03 11:00:00 21.1 37 Sur 52 Sur 0 -- -- 59
2020-08-03 10:00:00 19.5 41 Sur 51 Sur 0 -- -- 64
2020-08-03 09:00:00 17.8 20 Sur 26 Sur 0 -- -- 71
2020-08-03 08:00:00 16.3 19 Sur 33 Sur 0 -- -- 76
2020-08-03 07:00:00 16.6 17 Sur 37 Sur 0 -- -- 74
2020-08-03 06:00:00 17.2 27 Sur 46 Sur 0 -- -- 72
2020-08-03 05:00:00 17.6 31 Sur 41 Sur 0 -- -- 71
2020-08-03 04:00:00 18.1 27 Sur 41 Sur 0 -- -- 68
2020-08-03 03:00:00 18.9 30 Sur 51 Sur 0 -- -- 66
2020-08-03 02:00:00 19.5 38 Sur 51 Sur 0 -- -- 63
2020-08-03 01:00:00 20.8 40 Sur 53 Sur 0 -- -- 63
2020-08-03 00:00:00 22.5 30 Sur 41 Sur 0 -- -- 60
2020-08-02 23:00:00 24.3 23 Sur 35 Sur 0 -- -- 54
2020-08-02 22:00:00 25.5 13 Sur 32 Sudeste 0 -- -- 50
2020-08-02 21:00:00 26.5 17 Sudeste 33 Sur 0 -- -- 47
2020-08-02 20:00:00 28 25 Sudeste 35 Sudeste 0 -- -- 44
2020-08-02 19:00:00 29.1 21 Sur 38 Sur 0 -- -- 42
2020-08-02 18:00:00 30.3 31 Sur 49 Sudeste 0 -- -- 41
2020-08-02 17:00:00 30.9 35 Sur 50 Sur 0 -- -- 42
2020-08-02 16:00:00 29.8 33 Sudeste 50 Sur 0 -- -- 46
2020-08-02 15:00:00 29.4 38 Sur 59 Sur 0 -- -- 47
2020-08-02 14:00:00 29.1 41 Sur 53 Sur 0 -- -- 48
2020-08-02 13:00:00 27.4 43 Sur 58 Sur 0 -- -- 52
2020-08-02 12:00:00 25.6 46 Sur 57 Sur 0 -- -- 57
2020-08-02 11:00:00 24.6 32 Sur 42 Sur 0 -- -- 59
2020-08-02 10:00:00 23.2 22 Sudeste 33 Sur 0 -- -- 62
2020-08-02 09:00:00 20.9 23 Sur 33 Sur 0 -- -- 70
2020-08-02 08:00:00 18.4 19 Sur 26 Sur 0 -- -- 79
2020-08-02 07:00:00 17.5 5 Norte 17 Sur 0 -- -- 82
2020-08-02 06:00:00 18.9 14 Sur 28 Sur 0 -- -- 76
2020-08-02 05:00:00 20.1 21 Sur 37 Sur 0 -- -- 70
2020-08-02 04:00:00 21.2 29 Sur 42 Sur 0 -- -- 66
2020-08-02 03:00:00 22.4 19 Sudeste 44 Sur 0 -- -- 64
2020-08-02 02:00:00 23.9 28 Sur 43 Sur 0 -- -- 57
2020-08-02 01:00:00 23.5 10 Sur 15 Sur 0 -- -- 53
2020-08-02 00:00:00 24.3 4 Norte 10 Norte 0 -- -- 46
2020-08-01 23:00:00 25.8 4 Norte 6 Norte 0 -- -- 41
2020-08-01 22:00:00 28.2 2 Norte 19 Sur 0 -- -- 36
2020-08-01 21:00:00 29.9 11 Sur 19 Sur 0 -- -- 35
2020-08-01 20:00:00 32.7 15 Sudeste 33 Sudeste 0 -- -- 35
2020-08-01 19:00:00 34.4 22 Sur 34 Sur 0 -- -- 29
2020-08-01 18:00:00 35.6 23 Sur 37 Sur 0 -- -- 28
2020-08-01 17:00:00 37 17 Sudeste 41 Sudeste 0 -- -- 25
2020-08-01 16:00:00 37.5 19 Sur 41 Sur 0 -- -- 26
2020-08-01 15:00:00 38 25 Sur 39 Sur 0 -- -- 27
2020-08-01 14:00:00 37.5 14 Sur 39 Sudeste 0 -- -- 29
2020-08-01 13:00:00 36.2 21 Sur 37 Sudeste 0 -- -- 33
2020-08-01 12:00:00 35.1 5 Norte 10 Nordeste 0 -- -- 31
2020-08-01 11:00:00 32.4 4 Nordeste 9 Nordeste 0 -- -- 35
2020-08-01 10:00:00 29.4 6 Nordeste 10 Nordeste 0 -- -- 39
2020-08-01 09:00:00 26.9 5 Nordeste 8 Norte 0 -- -- 47
2020-08-01 08:00:00 21 3 Norte 7 Nordeste 0 -- -- 63
2020-08-01 07:00:00 18.3 4 Norte 7 Norte 0 -- -- 74
2020-08-01 06:00:00 18.4 4 Nordeste 7 Norte 0 -- -- 72
2020-08-01 05:00:00 19.3 5 Norte 7 Norte 0 -- -- 69
2020-08-01 04:00:00 19.5 6 Norte 8 Nordeste 0 -- -- 71
2020-08-01 03:00:00 20.4 8 Norte 10 Norte 0 -- -- 67
2020-08-01 02:00:00 21.2 5 Nordeste 9 Nordeste 0 -- -- 61
2020-08-01 01:00:00 23.3 5 Nordeste 10 Norte 0 -- -- 58
2020-08-01 00:00:00 24.8 5 Nordeste 7 Nordeste 0 -- -- 53
2020-07-31 23:00:00 27.2 5 Nordeste 17 Sur 0 -- -- 44
2020-07-31 22:00:00 30.6 7 Sur 31 Sudeste 0 -- -- 36
2020-07-31 21:00:00 30.3 14 Sur 26 Sur 0 -- -- 33
2020-07-31 20:00:00 34.1 14 Sur 26 Sudeste 0 -- -- 23
2020-07-31 19:00:00 36.5 12 Sur 31 Sur 0 -- -- 20
2020-07-31 18:00:00 37.8 19 Sur 34 Sur 0 -- -- 20
2020-07-31 17:00:00 38.4 19 Sur 39 Sur 0 -- -- 20
2020-07-31 16:00:00 38.7 24 Sur 35 Sur 0 -- -- 21
2020-07-31 15:00:00 38.8 21 Sudeste 31 Sur 0 -- -- 22
2020-07-31 14:00:00 37.8 23 Sur 34 Sur 0 -- -- 24
2020-07-31 13:00:00 36.9 20 Sur 30 Sur 0 -- -- 23
2020-07-31 12:00:00 35.5 5 Nordeste 11 Norte 0 -- -- 30
2020-07-31 11:00:00 30.9 5 Norte 13 Nordeste 0 -- -- 39
2020-07-31 10:00:00 29 8 Nordeste 16 Norte 0 -- -- 42
2020-07-31 09:00:00 25.7 8 Norte 15 Norte 0 -- -- 50
2020-07-31 08:00:00 21.2 5 Norte 12 Norte 0 -- -- 66
2020-07-31 07:00:00 18.6 6 Norte 12 Nordeste 0 -- -- 70
2020-07-31 06:00:00 18.9 7 Norte 10 Nordeste 0 -- -- 70
2020-07-31 05:00:00 20.5 8 Noroeste 14 Norte 0 -- -- 61
2020-07-31 04:00:00 21.3 5 Noroeste 10 Norte 0 -- -- 60
2020-07-31 03:00:00 20.7 3 Norte 13 Nordeste 0 -- -- 62
2020-07-31 02:00:00 22.7 4 Norte 7 Norte 0 -- -- 55
2020-07-31 01:00:00 23 3 Nordeste 6 Nordeste 0 -- -- 53
2020-07-31 00:00:00 23.1 5 Norte 8 Norte 0 -- -- 54
2020-07-30 23:00:00 25.4 4 Sudeste 12 Sur 0 -- -- 47
2020-07-30 22:00:00 27.6 7 Sur 18 Sudoeste 0 -- -- 41
2020-07-30 21:00:00 30.1 9 Sur 26 Sudoeste 0 -- -- 35
2020-07-30 20:00:00 33 23 Sudoeste 48 Sudeste 0 -- -- 30
2020-07-30 19:00:00 34.8 23 Sur 41 Sur 0 -- -- 29
2020-07-30 18:00:00 37.2 12 Sudoeste 31 Sur 0 -- -- 25
2020-07-30 17:00:00 37.5 15 Sur 30 Sur 0 -- -- 24
2020-07-30 16:00:00 38.1 18 Sur 32 Sur 0 -- -- 22
2020-07-30 15:00:00 37.3 21 Sur 37 Sur 0 -- -- 24
2020-07-30 14:00:00 36.1 20 Sur 34 Sur 0 -- -- 28
2020-07-30 13:00:00 34.7 15 Sur 32 Sur 0 -- -- 30
2020-07-30 12:00:00 32.8 8 Sur 16 Sur 0 -- -- 33
2020-07-30 11:00:00 31.7 4 Nordeste 12 Nordeste 0 -- -- 40
2020-07-30 10:00:00 29.2 5 Nordeste 10 Norte 0 -- -- 47
2020-07-30 09:00:00 26.4 6 Nordeste 9 Norte 0 -- -- 56
2020-07-30 08:00:00 20.6 4 Norte 8 Norte 0 -- -- 74
2020-07-30 07:00:00 17.9 6 Norte 9 Norte 0 -- -- 83
2020-07-30 06:00:00 17.6 7 Norte 12 Norte 0 -- -- 84
2020-07-30 05:00:00 18.2 6 Norte 9 Norte 0 -- -- 84
2020-07-30 04:00:00 19 7 Nordeste 9 Nordeste 0 -- -- 80
2020-07-30 03:00:00 19.6 6 Norte 8 Norte 0 -- -- 76
2020-07-30 02:00:00 20.9 5 Norte 9 Norte 0 -- -- 68
2020-07-30 01:00:00 22.2 5 Nordeste 7 Nordeste 0 -- -- 62
2020-07-30 00:00:00 23.4 5 Nordeste 9 Sur 0 -- -- 57
2020-07-29 23:00:00 26.2 8 Sur 14 Sur 0 -- -- 49
2020-07-29 22:00:00 28 7 Sur 14 Sudoeste 0 -- -- 43
2020-07-29 21:00:00 29.8 6 Sur 25 Sur 0 -- -- 39
2020-07-29 20:00:00 31.8 9 Sur 23 Sudoeste 0 -- -- 40
2020-07-29 19:00:00 33.8 14 Sur 32 Sur 0 -- -- 35
2020-07-29 18:00:00 34.9 15 Sudoeste 28 Sudoeste 0 -- -- 29
2020-07-29 17:00:00 35.8 19 Sur 36 Sur 0 -- -- 28
2020-07-29 16:00:00 35.4 18 Sur 32 Sur 0 -- -- 30
2020-07-29 15:00:00 34.8 22 Sur 36 Sur 0 -- -- 30
2020-07-29 14:00:00 33.8 25 Sur 34 Sur 0 -- -- 33
2020-07-29 13:00:00 31.9 26 Sur 38 Sur 0 -- -- 36
2020-07-29 12:00:00 29.1 31 Sur 38 Sur 0 -- -- 39
2020-07-29 11:00:00 31.1 4 Nordeste 10 Norte 0 -- -- 35
2020-07-29 10:00:00 27.3 5 Norte 10 Nordeste 0 -- -- 43
2020-07-29 09:00:00 24.3 5 Norte 8 Nordeste 0 -- -- 52
2020-07-29 08:00:00 19 3 Norte 9 Norte 0 -- -- 69
2020-07-29 07:00:00 16.1 4 Norte 6 Noroeste 0 -- -- 84
2020-07-29 06:00:00 16.7 4 Norte 8 Norte 0 -- -- 80
2020-07-29 05:00:00 16.9 5 Norte 10 Norte 0 -- -- 80
2020-07-29 04:00:00 17.5 8 Norte 10 Norte 0 -- -- 78
2020-07-29 03:00:00 18.6 6 Norte 10 Nordeste 0 -- -- 73
2020-07-29 02:00:00 19.7 5 Norte 9 Nordeste 0 -- -- 67
2020-07-29 01:00:00 20.9 6 Nordeste 8 Norte 0 -- -- 61
2020-07-29 00:00:00 22.6 4 Norte 6 Norte 0 -- -- 54
2020-07-28 23:00:00 24.5 6 Nordeste 13 Sur 0 -- -- 47
2020-07-28 22:00:00 26.4 12 Sur 18 Sur 0 -- -- 43
2020-07-28 21:00:00 29.3 9 Sur 16 Sur 0 -- -- 35
2020-07-28 20:00:00 32.3 7 Sudoeste 30 Sur 0 -- -- 30
2020-07-28 19:00:00 34.1 15 Sur 33 Sur 0 -- -- 26
2020-07-28 18:00:00 35.6 15 Sudoeste 46 Sudoeste 0 -- -- 24
2020-07-28 17:00:00 36.5 15 Sudoeste 36 Sudoeste 0 -- -- 23
2020-07-28 16:00:00 35.5 16 Sur 39 Sur 0 -- -- 24
2020-07-28 15:00:00 35.7 16 Sur 40 Sudeste 0 -- -- 28
2020-07-28 14:00:00 34.6 19 Sur 33 Sudeste 0 -- -- 29
2020-07-28 13:00:00 32.5 18 Sur 30 Sur 0 -- -- 30
2020-07-28 12:00:00 32.7 20 Sur 34 Sur 0 -- -- 34
2020-07-28 11:00:00 32.1 4 Sudeste 9 Sur 0 -- -- 37
2020-07-28 10:00:00 30.6 5 Nordeste 9 Norte 0 -- -- 46
2020-07-28 09:00:00 24.3 6 Norte 26 Noroeste 0 -- -- 66
2020-07-28 08:00:00 20 9 Norte 17 Sudeste 0 -- -- 84
2020-07-28 07:00:00 19.5 9 Norte 11 Norte 0 -- -- 85
2020-07-28 06:00:00 20.8 3 Norte 15 Nordeste 0 -- -- 77
2020-07-28 05:00:00 20.5 12 Norte 23 Norte 0 -- -- 83
2020-07-28 04:00:00 21.8 9 Norte 13 Norte 0 -- -- 72
2020-07-28 03:00:00 23.2 5 Este 14 Norte 0 -- -- 65
2020-07-28 02:00:00 24.5 4 Oeste 42 Sudeste 0 -- -- 57
2020-07-28 01:00:00 24.4 11 Sur 23 Sur 0 -- -- 59
2020-07-28 00:00:00 24.9 6 Nordeste 13 Nordeste 0 -- -- 56
2020-07-27 23:00:00 27.2 9 Sur 25 Sur 0 -- -- 48
2020-07-27 22:00:00 29.4 24 Sur 41 Sur 0 -- -- 42
2020-07-27 21:00:00 31.4 19 Sur 28 Sur 0 -- -- 38
2020-07-27 20:00:00 32.8 10 Sur 22 Sur 0 -- -- 35
2020-07-27 19:00:00 35.9 13 Sur 31 Sur 0 -- -- 28
2020-07-27 18:00:00 36.6 18 Sur 34 Sur 0 -- -- 27
2020-07-27 17:00:00 37.2 25 Sur 35 Sur 0 -- -- 27
2020-07-27 16:00:00 37 28 Sur 39 Sur 0 -- -- 28
2020-07-27 15:00:00 36 31 Sur 40 Sur 0 -- -- 32
2020-07-27 14:00:00 35.3 25 Sur 37 Sur 0 -- -- 32
2020-07-27 13:00:00 33.1 28 Sur 36 Sur 0 -- -- 39
2020-07-27 12:00:00 32.2 7 Sur 12 Sur 0 -- -- 44
2020-07-27 09:00:00 -- -- -- -- -- -- -- -- --
2020-07-27 08:00:00 -- -- -- -- -- -- -- -- --
2020-07-27 07:00:00 -- -- -- -- -- -- -- -- --
2020-07-27 06:00:00 18 6 Norte 9 Norte 0 -- -- 96
2020-07-27 05:00:00 18.6 6 Nordeste 8 Nordeste 0 -- -- 94
2020-07-27 04:00:00 18.8 4 Norte 7 Nordeste 0 -- -- 93
2020-07-27 03:00:00 20.4 4 Norte 5 Sur 0 -- -- 86
2020-07-27 02:00:00 21.7 3 Sur 20 Sur 0 -- -- 80
2020-07-27 01:00:00 22.9 19 Sur 35 Sudeste 0 -- -- 76
2020-07-27 00:00:00 24 23 Sur 39 Sudeste 0 -- -- 71
2020-07-26 23:00:00 25.1 26 Sur 37 Sur 0 -- -- 67
2020-07-26 22:00:00 26.8 22 Sur 31 Sur 0 -- -- 62
2020-07-26 21:00:00 28.6 17 Sur 30 Sudeste 0 -- -- 49
2020-07-26 20:00:00 29.7 18 Sur 29 Sudeste 0 -- -- 47
2020-07-26 19:00:00 31.4 23 Sudeste 38 Sudeste 0 -- -- 44
2020-07-26 18:00:00 32.4 23 Sur 37 Sur 0 -- -- 42
2020-07-26 17:00:00 32.9 27 Sur 39 Sur 0 -- -- 40
2020-07-26 16:00:00 33.1 27 Sur 39 Sudeste 0 -- -- 40
2020-07-26 15:00:00 32.8 26 Sur 36 Sur 0 -- -- 40
2020-07-26 14:00:00 32.3 23 Sur 36 Sudeste 0 -- -- 41
2020-07-26 13:00:00 30.7 15 Sur 36 Sur 0 -- -- 42
2020-07-26 12:00:00 30.1 18 Sur 30 Sur 0 -- -- 45
2020-07-26 11:00:00 29.6 4 Nordeste 10 Norte 0 -- -- 40
2020-07-26 10:00:00 26.6 4 Nordeste 11 Norte 0 -- -- 46
2020-07-26 09:00:00 23.8 6 Norte 9 Nordeste 0 -- -- 56
2020-07-26 08:00:00 18.1 3 Norte 8 Norte 0 -- -- 78
2020-07-26 07:00:00 15.1 4 Norte 8 Norte 0 -- -- 87
2020-07-26 06:00:00 15.3 4 Norte 7 Nordeste 0 -- -- 88
2020-07-26 05:00:00 15.3 9 Norte 11 Norte 0 -- -- 86
2020-07-26 04:00:00 16 5 Norte 9 Norte 0 -- -- 81
2020-07-26 03:00:00 16.7 6 Norte 9 Norte 0 -- -- 78
2020-07-26 02:00:00 18.1 5 Norte 6 Norte 0 -- -- 72
2020-07-26 01:00:00 18.7 3 Nordeste 10 Nordeste 0 -- -- 66
2020-07-26 00:00:00 19.8 6 Nordeste 22 Sur 0 -- -- 61
2020-07-25 23:00:00 21.7 3 Nordeste 8 Nordeste 0 -- -- 55
2020-07-25 22:00:00 23.9 6 Sur 13 Sur 0 -- -- 47
2020-07-25 21:00:00 25.1 13 Sur 30 Sudeste 0 -- -- 45
2020-07-25 20:00:00 27.8 15 Sur 27 Sudeste 0 -- -- 38
2020-07-25 19:00:00 29.9 18 Sur 32 Sudeste 0 -- -- 34
2020-07-25 18:00:00 31 21 Sur 36 Sur 0 -- -- 32
2020-07-25 17:00:00 31.6 22 Sur 34 Sur 0 -- -- 34
2020-07-25 16:00:00 30.9 24 Sur 42 Sur 0 -- -- 38
2020-07-25 15:00:00 30.4 27 Sudeste 41 Sur 0 -- -- 42
2020-07-25 14:00:00 28.9 30 Sur 42 Sur 0 -- -- 48
2020-07-25 13:00:00 27.8 31 Sur 41 Sur 0 -- -- 52
2020-07-25 12:00:00 26.8 31 Sur 42 Sur 0 -- -- 56
2020-07-25 11:00:00 25.5 28 Sur 34 Sudeste 0 -- -- 61
2020-07-25 10:00:00 25.9 3 Este 10 Sudeste 0 -- -- 55
2020-07-25 09:00:00 24.3 4 Norte 10 Norte 0 -- -- 59
2020-07-25 08:00:00 18.4 4 Norte 9 Norte 0 -- -- 90
2020-07-25 07:00:00 15.4 7 Norte 9 Nordeste 0 -- -- 96
2020-07-25 06:00:00 15.9 4 Nordeste 7 Nordeste 0 -- -- 94
2020-07-25 05:00:00 16.5 5 Nordeste 7 Nordeste 0 -- -- 92
2020-07-25 04:00:00 17.4 4 Nordeste 7 Nordeste 0 -- -- 87
2020-07-25 03:00:00 18.8 5 Nordeste 18 Sur 0 -- -- 80
2020-07-25 02:00:00 20.9 14 Sur 26 Sur 0 -- -- 73
2020-07-25 01:00:00 21.7 18 Sur 24 Sur 0 -- -- 69
2020-07-25 00:00:00 22.6 14 Sudeste 42 Sur 0 -- -- 64
2020-07-24 23:00:00 23.5 22 Sur 45 Sur 0 -- -- 58
2020-07-24 22:00:00 24.7 30 Sudeste 40 Sudeste 0 -- -- 53
2020-07-24 21:00:00 25.7 18 Sur 25 Sur 0 -- -- 54
2020-07-24 20:00:00 28.3 20 Sur 35 Sur 0 -- -- 45
2020-07-24 19:00:00 30.2 12 Sur 29 Sur 0 -- -- 44
2020-07-24 18:00:00 31 18 Sudeste 35 Sur 0 -- -- 40
2020-07-24 17:00:00 31.5 23 Sur 33 Sur 0 -- -- 41
2020-07-24 16:00:00 31.6 21 Sudeste 35 Sur 0 -- -- 44
2020-07-24 15:00:00 30.5 23 Sur 33 Sur 0 -- -- 48
2020-07-24 14:00:00 28.6 27 Sur 41 Sur 0 -- -- 54
2020-07-24 13:00:00 26.8 26 Sur 36 Sur 0 -- -- 60
2020-07-24 12:00:00 25.4 6 Sur 10 Sur 0 -- -- 62
2020-07-24 11:00:00 20.2 5 Noroeste 21 Oeste 0 -- -- 87
2020-07-24 10:00:00 20 9 Nordeste 23 Este 1.2 -- -- 84
2020-07-24 09:00:00 21.5 4 Noroeste 12 Norte 0 -- -- 85
2020-07-24 08:00:00 17.8 8 Norte 20 Nordeste 0.2 -- -- 97
2020-07-24 07:00:00 16.6 6 Nordeste 20 Norte 0 -- -- 98
2020-07-24 06:00:00 16.9 14 Norte 20 Norte 1.2 -- -- 98
2020-07-24 05:00:00 16.6 9 Nordeste 14 Nordeste 0 -- -- 98
2020-07-24 04:00:00 16.8 8 Nordeste 13 Nordeste 0 -- -- 97
2020-07-24 03:00:00 17.4 5 Norte 15 Norte 0.2 -- -- 95
2020-07-24 02:00:00 18.3 12 Norte 40 Sudoeste 4.2 -- -- 91
2020-07-24 01:00:00 23 5 Norte 17 Norte 0 -- -- 53
2020-07-24 00:00:00 24.1 9 Norte 16 Norte 0 -- -- 50
2020-07-23 23:00:00 25.7 4 Este 31 Sur 0 -- -- 49
2020-07-23 22:00:00 26.5 17 Sudeste 34 Sudeste 0 -- -- 51
2020-07-23 21:00:00 27.9 22 Sudeste 39 Sur 0 -- -- 44
2020-07-23 20:00:00 30.5 22 Sur 37 Sur 0 -- -- 26
2020-07-23 19:00:00 32.1 17 Sur 40 Sur 0 -- -- 25
2020-07-23 18:00:00 33.4 23 Sur 37 Sudeste 0 -- -- 24
2020-07-23 17:00:00 34.1 23 Sur 41 Sudeste 0 -- -- 24
2020-07-23 16:00:00 34.2 26 Sur 40 Sur 0 -- -- 27
2020-07-23 15:00:00 34.8 18 Sur 34 Sur 0 -- -- 26
2020-07-23 14:00:00 34.6 23 Sur 35 Sur 0 -- -- 26
2020-07-23 13:00:00 32.6 25 Sur 35 Sur 0 -- -- 31
2020-07-23 12:00:00 31.6 23 Sur 31 Sur 0 -- -- 35
2020-07-23 11:00:00 30.7 5 Norte 10 Norte 0 -- -- 37
2020-07-23 10:00:00 28.8 5 Nordeste 10 Nordeste 0 -- -- 40
2020-07-23 09:00:00 26.2 6 Norte 10 Nordeste 0 -- -- 46
2020-07-23 08:00:00 18.9 5 Norte 7 Noroeste 0 -- -- 67
2020-07-23 07:00:00 18.2 5 Norte 8 Norte 0 -- -- 71
2020-07-23 06:00:00 19.2 2 Noroeste 7 Norte 0 -- -- 60
2020-07-23 05:00:00 19.3 4 Norte 7 Norte 0 -- -- 59
2020-07-23 04:00:00 18.8 5 Norte 7 Norte 0 -- -- 60
2020-07-23 03:00:00 18.6 6 Norte 10 Norte 0 -- -- 63
2020-07-23 02:00:00 18.8 5 Norte 8 Nordeste 0 -- -- 61
2020-07-23 01:00:00 20.7 3 Sur 9 Nordeste 0 -- -- 54
2020-07-23 00:00:00 21.5 0 Calma 10 Norte 0 -- -- 51
2020-07-22 23:00:00 23.8 4 Nordeste 23 Sur 0 -- -- 45
2020-07-22 22:00:00 26.6 20 Sudeste 36 Sudeste 0 -- -- 35
2020-07-22 21:00:00 28.1 15 Sur 29 Sur 0 -- -- 36
2020-07-22 20:00:00 30.2 13 Sur 23 Sur 0 -- -- 30
2020-07-22 19:00:00 31 16 Sur 29 Sur 0 -- -- 28
2020-07-22 18:00:00 34.5 17 Sudeste 29 Sur 0 -- -- 23
2020-07-22 17:00:00 34.4 20 Sur 38 Sur 0 -- -- 22
2020-07-22 16:00:00 34.2 26 Sur 37 Sur 0 -- -- 22
2020-07-22 15:00:00 34.8 20 Sur 27 Sur 0 -- -- 20
2020-07-22 14:00:00 32.6 18 Sur 31 Sudeste 0 -- -- 21
2020-07-22 13:00:00 31.3 23 Sudeste 36 Sur 0 -- -- 31
2020-07-22 12:00:00 29 23 Sur 31 Sur 0 -- -- 40
2020-07-22 11:00:00 30.5 4 Nordeste 13 Norte 0 -- -- 39
2020-07-22 10:00:00 28 4 Nordeste 13 Norte 0 -- -- 44
2020-07-22 09:00:00 23.9 6 Nordeste 16 Nordeste 0 -- -- 53
2020-07-22 08:00:00 19.8 5 Norte 7 Norte 0 -- -- 72
2020-07-22 07:00:00 18.3 2 Norte 15 Norte 0 -- -- 69
2020-07-22 06:00:00 18.2 3 Norte 6 Nordeste 0 -- -- 75
2020-07-22 05:00:00 19.5 4 Norte 10 Norte 0 -- -- 67
2020-07-22 04:00:00 19.6 8 Norte 15 Norte 0 -- -- 70
2020-07-22 03:00:00 20.1 4 Norte 6 Norte 0 -- -- 74
2020-07-22 02:00:00 19.6 5 Norte 10 Sur 0 -- -- 78
2020-07-22 01:00:00 21 2 Este 6 Sudeste 0 -- -- 72
2020-07-22 00:00:00 21.8 5 Nordeste 7 Nordeste 0 -- -- 68
2020-07-21 23:00:00 24.5 6 Sudoeste 19 Sur 0 -- -- 58
2020-07-21 22:00:00 25.7 14 Sur 25 Sur 0 -- -- 53
2020-07-21 21:00:00 27.5 23 Sur 45 Sur 0 -- -- 49
2020-07-21 20:00:00 29 30 Sur 44 Sur 0 -- -- 46
2020-07-21 19:00:00 31.9 21 Sur 41 Sudeste 0 -- -- 39
2020-07-21 18:00:00 33.7 17 Sur 35 Sur 0 -- -- 35
2020-07-21 17:00:00 34.7 15 Sur 33 Sur 0 -- -- 29
2020-07-21 16:00:00 35 22 Sur 35 Sur 0 -- -- 30
2020-07-21 15:00:00 34.1 24 Sur 33 Sur 0 -- -- 31
2020-07-21 14:00:00 33.2 26 Sur 34 Sur 0 -- -- 33
2020-07-21 13:00:00 32.1 23 Sur 32 Sudeste 0 -- -- 33
2020-07-21 12:00:00 31.2 5 Nordeste 11 Nordeste 0 -- -- 39
2020-07-21 11:00:00 29.3 5 Nordeste 12 Nordeste 0 -- -- 44
2020-07-21 10:00:00 26.2 5 Nordeste 11 Nordeste 0 -- -- 51
2020-07-21 09:00:00 23.4 8 Norte 14 Nordeste 0 -- -- 59
2020-07-21 08:00:00 18.6 5 Norte 10 Norte 0 -- -- 80
2020-07-21 07:00:00 14.9 4 Nordeste 10 Norte 0 -- -- 91
2020-07-21 06:00:00 15.6 5 Norte 10 Norte 0 -- -- 87
2020-07-21 05:00:00 16.3 2 Norte 5 Nordeste 0 -- -- 85
2020-07-21 04:00:00 17.2 3 Norte 6 Norte 0 -- -- 81
2020-07-21 03:00:00 18.1 2 Nordeste 9 Nordeste 0 -- -- 77
2020-07-21 02:00:00 18.4 3 Nordeste 8 Norte 0 -- -- 77
2020-07-21 01:00:00 19.5 2 Este 9 Nordeste 0 -- -- 73
2020-07-21 00:00:00 20.2 4 Norte 9 Norte 0 -- -- 70
2020-07-20 23:00:00 20.5 6 Nordeste 10 Norte 0 -- -- 67
2020-07-20 22:00:00 23.7 4 Nordeste 21 Nordeste 0 -- -- 52
2020-07-20 21:00:00 25.3 11 Nordeste 30 Sur 0 -- -- 47
2020-07-20 20:00:00 27.3 22 Sur 38 Sur 0 -- -- 52
2020-07-20 19:00:00 29.1 22 Sur 38 Sur 0 -- -- 47
2020-07-20 18:00:00 31 17 Sur 35 Sur 0 -- -- 43
2020-07-20 17:00:00 31.1 20 Sudoeste 35 Sudoeste 0 -- -- 42
2020-07-20 16:00:00 31.8 16 Sudoeste 39 Sudoeste 0 -- -- 40
2020-07-20 15:00:00 32.1 21 Sur 48 Sudeste 0 -- -- 38
2020-07-20 14:00:00 30.9 23 Sur 47 Sur 0 -- -- 39
2020-07-20 13:00:00 29.4 23 Sur 39 Sur 0 -- -- 40
2020-07-20 12:00:00 26.7 3 Sudeste 8 Nordeste 0 -- -- 56
2020-07-20 11:00:00 26.4 4 Nordeste 8 Sudeste 0 -- -- 54
2020-07-20 10:00:00 24.4 4 Nordeste 8 Nordeste 0 -- -- 62
2020-07-20 09:00:00 23.2 4 Nordeste 13 Norte 0 -- -- 64
2020-07-20 08:00:00 21.5 2 Nordeste 7 Nordeste 0 -- -- 72
2020-07-20 07:00:00 17.1 5 Nordeste 8 Norte 0 -- -- 88
2020-07-20 06:00:00 17.2 3 Norte 10 Norte 0 -- -- 88
2020-07-20 05:00:00 17 5 Nordeste 9 Nordeste 0 -- -- 91
2020-07-20 04:00:00 18.1 3 Norte 12 Norte 0 -- -- 86
2020-07-20 03:00:00 18.4 9 Norte 12 Norte 0 -- -- 84
2020-07-20 02:00:00 19.4 3 Norte 8 Sur 0 -- -- 80
2020-07-20 01:00:00 20.7 3 Sur 7 Sudeste 0 -- -- 73
2020-07-20 00:00:00 22.4 4 Sudeste 22 Sur 0 -- -- 66
2020-07-19 23:00:00 24.4 14 Sur 26 Sur 0 -- -- 58
2020-07-19 22:00:00 25.4 19 Sur 37 Sur 0 -- -- 56
2020-07-19 21:00:00 27 26 Sur 44 Sudeste 0 -- -- 54
2020-07-19 20:00:00 29.5 17 Sur 29 Sur 0 -- -- 43
2020-07-19 19:00:00 31.7 16 Sur 31 Sur 0 -- -- 33
2020-07-19 18:00:00 32.3 17 Sur 29 Sur 0 -- -- 33
2020-07-19 17:00:00 33 21 Sur 33 Sudeste 0 -- -- 34
2020-07-19 16:00:00 33.1 24 Sur 33 Sudeste 0 -- -- 35
2020-07-19 15:00:00 32.6 23 Sudeste 40 Sur 0 -- -- 37
2020-07-19 14:00:00 31.6 28 Sudeste 37 Sur 0 -- -- 39
2020-07-19 13:00:00 30.6 25 Sur 32 Sur 0 -- -- 42
2020-07-19 12:00:00 29.9 14 Sudeste 20 Sudeste 0 -- -- 44
2020-07-19 11:00:00 28.4 5 Nordeste 11 Nordeste 0 -- -- 48
2020-07-19 10:00:00 26.7 5 Nordeste 11 Norte 0 -- -- 50
2020-07-19 09:00:00 23.9 6 Norte 10 Nordeste 0 -- -- 59
2020-07-19 08:00:00 17.7 5 Norte 6 Norte 0 -- -- 96
2020-07-19 07:00:00 14.9 5 Norte 6 Norte 0 -- -- 98
2020-07-19 06:00:00 15.2 5 Norte 8 Norte 0 -- -- 97
2020-07-19 05:00:00 15.6 5 Norte 6 Norte 0 -- -- 96
2020-07-19 04:00:00 16.5 4 Nordeste 6 Nordeste 0 -- -- 92
2020-07-19 03:00:00 18.5 6 Sur 22 Sur 0 -- -- 88
2020-07-19 02:00:00 19.6 16 Sur 24 Sur 0 -- -- 84
2020-07-19 01:00:00 20.6 18 Sur 36 Sudeste 0 -- -- 78
2020-07-19 00:00:00 21.5 28 Sur 38 Sur 0 -- -- 75
2020-07-18 23:00:00 22.6 27 Sur 37 Sudeste 0 -- -- 68
2020-07-18 22:00:00 24.2 22 Sur 33 Sudeste 0 -- -- 61
2020-07-18 21:00:00 25 16 Sur 24 Sur 0 -- -- 56
2020-07-18 20:00:00 27.3 18 Sur 35 Sur 0 -- -- 47
2020-07-18 19:00:00 28.8 22 Sur 36 Sur 0 -- -- 44
2020-07-18 18:00:00 29.5 28 Sur 37 Sur 0 -- -- 44
2020-07-18 17:00:00 29.8 29 Sur 40 Sur 0 -- -- 44
2020-07-18 16:00:00 29.9 28 Sur 41 Sur 0 -- -- 44
2020-07-18 15:00:00 29.2 30 Sur 47 Sur 0 -- -- 46
2020-07-18 14:00:00 28.3 31 Sur 41 Sur 0 -- -- 48
2020-07-18 13:00:00 26.7 33 Sur 41 Sur 0 -- -- 53
2020-07-18 12:00:00 26.4 22 Sur 28 Sur 0 -- -- 49
2020-07-18 11:00:00 25.1 9 Sur 15 Sur 0 -- -- 46
2020-07-18 10:00:00 25.4 6 Nordeste 12 Nordeste 0 -- -- 43
2020-07-18 09:00:00 23.7 6 Nordeste 11 Nordeste 0 -- -- 47
2020-07-18 08:00:00 18.1 6 Nordeste 11 Nordeste 0 -- -- 65
2020-07-18 07:00:00 14.5 4 Nordeste 13 Norte 0 -- -- 76
2020-07-18 06:00:00 14.4 3 Este 15 Norte 0 -- -- 73
2020-07-18 05:00:00 14.9 4 Nordeste 14 Nordeste 0 -- -- 76
2020-07-18 04:00:00 14.9 4 Norte 9 Nordeste 0 -- -- 77
2020-07-18 03:00:00 16.6 4 Norte 6 Nordeste 0 -- -- 78
2020-07-18 02:00:00 18.7 5 Sur 20 Sur 0 -- -- 79
2020-07-18 01:00:00 19.4 2 Sudeste 10 Sudoeste 0 -- -- 74
2020-07-18 00:00:00 19.8 4 Noroeste 11 Nordeste 0 -- -- 67
2020-07-17 23:00:00 21.5 4 Sudeste 10 Sur 0 -- -- 62
2020-07-17 22:00:00 22.6 6 Sur 20 Sur 0 -- -- 57
2020-07-17 21:00:00 24 15 Sur 28 Sudeste 0 -- -- 55
2020-07-17 20:00:00 25.9 18 Sur 33 Sudeste 0 -- -- 48
2020-07-17 19:00:00 26.5 23 Sur 34 Sur 0 -- -- 47
2020-07-17 18:00:00 27.5 24 Sudeste 39 Sudeste 0 -- -- 45
2020-07-17 17:00:00 27.6 30 Sur 42 Sur 0 -- -- 46
2020-07-17 16:00:00 27.6 30 Sur 45 Sudeste 0 -- -- 44
2020-07-17 15:00:00 27.1 33 Sur 46 Sur 0 -- -- 48
2020-07-17 14:00:00 26.4 33 Sur 45 Sur 0 -- -- 50
2020-07-17 13:00:00 25.4 36 Sur 47 Sur 0 -- -- 53
2020-07-17 12:00:00 24.9 31 Sur 39 Sur 0 -- -- 58
2020-07-17 11:00:00 24.1 23 Sur 29 Sur 0 -- -- 64
2020-07-17 10:00:00 22.3 11 Sur 15 Sudeste 0 -- -- 66
2020-07-17 09:00:00 23.8 4 Norte 10 Nordeste 0 -- -- 53
2020-07-17 08:00:00 18.1 6 Nordeste 11 Este 0 -- -- 70
2020-07-17 07:00:00 17.2 5 Norte 9 Norte 0 -- -- 82
2020-07-17 06:00:00 17.2 5 Norte 12 Norte 0 -- -- 84
2020-07-17 05:00:00 17.5 5 Norte 17 Sur 0 -- -- 86
2020-07-17 04:00:00 18.9 11 Sur 30 Sur 0 -- -- 88
2020-07-17 03:00:00 19.4 22 Sur 40 Sur 0 -- -- 86
2020-07-17 02:00:00 19.7 32 Sur 42 Sur 0 -- -- 83
2020-07-17 01:00:00 19.9 22 Sur 30 Sur 0 -- -- 76
2020-07-17 00:00:00 20.2 18 Sudeste 26 Sur 0 -- -- 71
2020-07-16 23:00:00 21.2 8 Sur 12 Sur 0 -- -- 62
2020-07-16 22:00:00 22.6 10 Sur 24 Sudeste 0 -- -- 57
2020-07-16 21:00:00 23.6 18 Sur 32 Sudeste 0 -- -- 54
2020-07-16 20:00:00 25.1 21 Sur 33 Sur 0 -- -- 50
2020-07-16 19:00:00 26.6 25 Sudeste 39 Sur 0 -- -- 47
2020-07-16 18:00:00 26.9 29 Sur 44 Sur 0 -- -- 46
2020-07-16 17:00:00 27.3 30 Sudeste 45 Sur 0 -- -- 46
2020-07-16 16:00:00 27.2 32 Sur 49 Sur 0 -- -- 46
2020-07-16 15:00:00 26.6 35 Sur 49 Sur 0 -- -- 47
2020-07-16 14:00:00 25.8 35 Sur 52 Sur 0 -- -- 49
2020-07-16 13:00:00 24.1 40 Sur 50 Sur 0 -- -- 52
2020-07-16 12:00:00 22.4 42 Sur 50 Sur 0 -- -- 57
2020-07-16 11:00:00 21.8 30 Sur 37 Sur 0 -- -- 59
2020-07-16 10:00:00 21.4 16 Sur 23 Sur 0 -- -- 60
2020-07-16 09:00:00 23.1 5 Nordeste 10 Norte 0 -- -- 51
2020-07-16 08:00:00 17 5 Norte 10 Nordeste 0 -- -- 72
2020-07-16 07:00:00 14.7 4 Norte 8 Norte 0 -- -- 80
2020-07-16 06:00:00 15.1 3 Norte 11 Nordeste 0 -- -- 78
2020-07-16 05:00:00 15.7 6 Norte 12 Nordeste 0 -- -- 80
2020-07-16 04:00:00 16.2 6 Nordeste 12 Nordeste 0 -- -- 86
2020-07-16 03:00:00 15.8 6 Nordeste 8 Nordeste 0 -- -- 87
2020-07-16 02:00:00 16.9 0 Calma 8 Nordeste 0 -- -- 82
2020-07-16 01:00:00 17.3 7 Nordeste 9 Nordeste 0 -- -- 81
2020-07-16 00:00:00 17.7 3 Nordeste 6 Sur 0 -- -- 81
2020-07-15 23:00:00 17.9 4 Este 7 Nordeste 0 -- -- 80
2020-07-15 22:00:00 19.9 3 Este 5 Sur 0 -- -- 72
2020-07-15 21:00:00 21.7 4 Sur 13 Sur 0 -- -- 65
2020-07-15 20:00:00 22.8 11 Sur 18 Sur 0 -- -- 61
2020-07-15 19:00:00 23.8 11 Sur 21 Sur 0 -- -- 56
2020-07-15 18:00:00 23.9 13 Sur 27 Sur 0 -- -- 55
2020-07-15 17:00:00 23.9 21 Sur 32 Sur 0 -- -- 56
2020-07-15 16:00:00 23.8 23 Sur 35 Sudeste 0 -- -- 59
2020-07-15 15:00:00 24.3 29 Sur 46 Sur 0 -- -- 56
2020-07-15 14:00:00 21.7 36 Sur 50 Sur 0 -- -- 61
2020-07-15 13:00:00 22.1 38 Sur 49 Sur 0 -- -- 60
2020-07-15 12:00:00 22 31 Sur 40 Sur 0 -- -- 62
2020-07-15 11:00:00 20.1 27 Sur 33 Sur 0 -- -- 68
2020-07-15 10:00:00 20.6 5 Nordeste 9 Norte 0 -- -- 63
2020-07-15 09:00:00 17.5 3 Nordeste 6 Nordeste 0 -- -- 78
2020-07-15 08:00:00 14.9 4 Norte 8 Norte 0 -- -- 86
2020-07-15 07:00:00 13.6 5 Norte 9 Nordeste 0 -- -- 90
2020-07-15 06:00:00 12.6 3 Nordeste 9 Nordeste 0 -- -- 95
2020-07-15 05:00:00 12.5 4 Norte 8 Norte 0 -- -- 95
2020-07-15 04:00:00 12.6 3 Nordeste 10 Nordeste 0 -- -- 93
2020-07-15 03:00:00 13.3 4 Norte 6 Norte 0 -- -- 92
2020-07-15 02:00:00 14.1 3 Nordeste 9 Norte 0 -- -- 86
2020-07-15 01:00:00 13.9 7 Nordeste 10 Nordeste 0 -- -- 90
2020-07-15 00:00:00 14.8 6 Nordeste 8 Nordeste 0 -- -- 84
2020-07-14 23:00:00 15.9 6 Nordeste 10 Nordeste 0 -- -- 80
2020-07-14 22:00:00 17.6 3 Nordeste 12 Nordeste 0 -- -- 73
2020-07-14 21:00:00 19.4 5 Noroeste 21 Oeste 0 -- -- 58
2020-07-14 20:00:00 20 4 Norte 14 Sudoeste 0.2 -- -- 65
2020-07-14 19:00:00 24.3 6 Sur 16 Sudoeste 0 -- -- 44
2020-07-14 18:00:00 25.1 5 Sur 25 Sur 0 -- -- 41
2020-07-14 17:00:00 25.6 16 Sur 35 Sudeste 0 -- -- 40
2020-07-14 16:00:00 26.2 20 Sur 39 Sur 0 -- -- 41
2020-07-14 15:00:00 26.1 23 Sur 48 Sudeste 0 -- -- 42
2020-07-14 14:00:00 24.9 34 Sur 52 Sur 0 -- -- 44
2020-07-14 13:00:00 25.6 23 Sur 34 Sudeste 0 -- -- 46
2020-07-14 12:00:00 24 16 Sur 22 Sur 0 -- -- 53
2020-07-14 11:00:00 24.5 4 Norte 9 Nordeste 0 -- -- 46
2020-07-14 10:00:00 19.4 2 Norte 9 Nordeste 0 -- -- 65
2020-07-14 09:00:00 18.7 3 Norte 7 Norte 0 -- -- 68
2020-07-14 08:00:00 17.3 4 Nordeste 6 Nordeste 0 -- -- 78
2020-07-14 07:00:00 14.3 4 Nordeste 11 Nordeste 0 -- -- 94
2020-07-14 06:00:00 14.6 4 Nordeste 9 Nordeste 0 -- -- 95
2020-07-14 05:00:00 15.9 3 Norte 13 Norte 0 -- -- 92
2020-07-14 04:00:00 17.3 3 Nordeste 5 Nordeste 0 -- -- 89
2020-07-14 03:00:00 17.7 0 Calma 4 Nordeste 0 -- -- 90
2020-07-14 02:00:00 17 0 Calma 8 Norte 0 -- -- 96
2020-07-14 01:00:00 16.8 6 Norte 13 Norte 0 -- -- 97
2020-07-14 00:00:00 17 8 Norte 13 Nordeste 0 -- -- 96